• Join FlightAware (Why Join?)
  • Login
  • US Flag 
09:34AM EDT


 

Airport Tracker/Info


-or-


 

Live Flight TrackerFlight Track Log ✈ G52617 ✈ 14-Mar-2014 ✈ ZUGY / KWE - ZGWZ / WUZ

Flight Track Log - Related Links

Times and Time Zones

All times are in EDT time to prevent confusion due to time zone crossing. See the G52617 flight status page for this flight to view local times or setup timezone preferences in your user account.

Time Position Orientation Groundspeed Altitude Reporting Facility
EDT Latitude Longitude Course Direction KTS MPH feet Rate Location/Type
08:38PM 26.2596 107.2209 126° Southeast  Level Estimated
08:39PM 26.2131 107.2907 127° Southeast  Level Estimated
08:40PM 26.1664 107.3605 127° Southeast  Level Estimated
08:41PM 26.1197 107.4302 127° Southeast  Level Estimated
08:42PM 26.0730 107.4999 127° Southeast  Level Estimated
08:43PM 26.0263 107.5695 127° Southeast  Level Estimated
08:44PM 25.9795 107.6391 127° Southeast  Level Estimated
08:45PM 25.9328 107.7086 127° Southeast  Level Estimated
08:46PM 25.8859 107.7780 127° Southeast  Level Estimated
08:47PM 25.8391 107.8474 127° Southeast  Level Estimated
08:48PM 25.7922 107.9167 127° Southeast  Level Estimated
08:49PM 25.7452 107.9860 127° Southeast  Level Estimated
08:50PM 25.6983 108.0552 127° Southeast  Level Estimated
08:51PM 25.6513 108.1244 127° Southeast  Level Estimated
08:52PM 25.6042 108.1935 127° Southeast  Level Estimated
08:53PM 25.5572 108.2626 127° Southeast  Level Estimated
08:54PM 25.5101 108.3316 127° Southeast  Level Estimated
08:55PM 25.4630 108.4006 127° Southeast  Level Estimated
08:56PM 25.4158 108.4695 127° Southeast  Level Estimated
08:57PM 25.3686 108.5383 127° Southeast  Level Estimated
08:58PM 25.3214 108.6071 127° Southeast  Level Estimated
08:59PM 25.2741 108.6758 127° Southeast  Level Estimated
09:00PM 25.2269 108.7445 127° Southeast  Level Estimated
09:01PM 25.1795 108.8131 127° Southeast  Level Estimated
09:02PM 25.1322 108.8817 127° Southeast  Level Estimated
09:03PM 25.0848 108.9502 127° Southeast  Level Estimated
09:04PM 25.0374 109.0187 127° Southeast  Level Estimated
09:05PM 24.9900 109.0871 127° Southeast  Level Estimated
09:06PM 24.9425 109.1555 127° Southeast  Level Estimated
09:07PM 24.8950 109.2238 127° Southeast  Level Estimated
09:08PM 24.8474 109.2921 127° Southeast  Level Estimated
09:09PM 24.7999 109.3603 128° Southeast  Level Estimated
09:10PM 24.7523 109.4285 128° Southeast  Level Estimated
09:11PM 24.7046 109.4966 128° Southeast  Level Estimated
09:12PM 24.6570 109.5646 128° Southeast  Level Estimated
09:13PM 24.6093 109.6326 128° Southeast  Level Estimated
09:14PM 24.5616 109.7006 128° Southeast  Level Estimated
09:15PM 24.5138 109.7684 128° Southeast  Level Estimated
09:16PM 24.4660 109.8363 128° Southeast  Level Estimated
09:17PM 24.4182 109.9041 128° Southeast  Level Estimated
09:18PM 24.3704 109.9718 128° Southeast  Level Estimated
09:19PM 24.3225 110.0395 128° Southeast  Level Estimated
09:20PM 24.2746 110.1072 128° Southeast  Level Estimated
09:21PM 24.2267 110.1748 128° Southeast  Level Estimated
09:22PM 24.1787 110.2423 128° Southeast  Level Estimated
09:23PM 24.1307 110.3098 128° Southeast  Level Estimated
09:24PM 24.0827 110.3772 128° Southeast  Level Estimated
09:25PM 24.0346 110.4446 128° Southeast  Level Estimated
09:26PM 23.9865 110.5119 128° Southeast  Level Estimated
09:27PM 23.9384 110.5792 128° Southeast  Level Estimated
09:28PM 23.8903 110.6465 128° Southeast  Level Estimated
09:29PM 23.8421 110.7136 128° Southeast  Level Estimated
09:30PM 23.7939 110.7808 128° Southeast  Level Estimated
09:31PM 23.7457 110.8479 128° Southeast  Level Estimated
09:32PM 23.6975 110.9149 128° Southeast  Level Estimated
09:33PM 23.6492 110.9819 128° Southeast  Level Estimated
09:34PM 23.6008 111.0488 128° Southeast  Level Estimated
09:35PM 23.5525 111.1157 128° Southeast  Level Estimated
09:36PM 23.5041 111.1825 128° Southeast  Level Estimated
09:37PM 23.4567 111.2481 128° Southeast  Level Estimated
09:38PM 23.4567 111.2481 North  Level Estimated
09:39PM 23.4567 111.2481 North  Level Estimated